sensor_id;sensor_type;location;lat;lon;timestamp;P1;durP1;ratioP1;P2;durP2;ratioP2
39680;SDS011;26327;42.550;23.120;2022-12-18T00:00:41;9.85;;;6.93;;
39680;SDS011;26327;42.550;23.120;2022-12-18T00:03:07;11.25;;;7.05;;
39680;SDS011;26327;42.550;23.120;2022-12-18T00:05:33;9.60;;;6.63;;
39680;SDS011;26327;42.550;23.120;2022-12-18T00:07:58;12.18;;;7.07;;
39680;SDS011;26327;42.550;23.120;2022-12-18T00:10:23;9.90;;;6.40;;
39680;SDS011;26327;42.550;23.120;2022-12-18T00:12:49;8.63;;;6.22;;
39680;SDS011;26327;42.550;23.120;2022-12-18T00:15:15;8.20;;;5.65;;
39680;SDS011;26327;42.550;23.120;2022-12-18T00:17:40;9.40;;;6.50;;
39680;SDS011;26327;42.550;23.120;2022-12-18T00:20:06;9.65;;;7.00;;
39680;SDS011;26327;42.550;23.120;2022-12-18T00:22:31;15.30;;;8.85;;
39680;SDS011;26327;42.550;23.120;2022-12-18T00:24:57;11.35;;;7.35;;
39680;SDS011;26327;42.550;23.120;2022-12-18T00:27:22;13.57;;;8.85;;
39680;SDS011;26327;42.550;23.120;2022-12-18T00:29:48;14.23;;;8.80;;
39680;SDS011;26327;42.550;23.120;2022-12-18T00:32:13;11.23;;;6.40;;
39680;SDS011;26327;42.550;23.120;2022-12-18T00:34:39;10.73;;;7.05;;
39680;SDS011;26327;42.550;23.120;2022-12-18T00:37:04;13.68;;;8.02;;
39680;SDS011;26327;42.550;23.120;2022-12-18T00:39:29;11.27;;;7.43;;
39680;SDS011;26327;42.550;23.120;2022-12-18T00:41:55;10.98;;;7.85;;
39680;SDS011;26327;42.550;23.120;2022-12-18T00:44:38;11.30;;;7.80;;
39680;SDS011;26327;42.550;23.120;2022-12-18T00:47:04;10.43;;;7.13;;
39680;SDS011;26327;42.550;23.120;2022-12-18T00:49:29;11.40;;;7.60;;
39680;SDS011;26327;42.550;23.120;2022-12-18T00:51:55;12.75;;;8.32;;
39680;SDS011;26327;42.550;23.120;2022-12-18T00:54:20;12.70;;;8.63;;
39680;SDS011;26327;42.550;23.120;2022-12-18T00:56:45;12.73;;;8.32;;
39680;SDS011;26327;42.550;23.120;2022-12-18T00:59:11;12.15;;;7.57;;
39680;SDS011;26327;42.550;23.120;2022-12-18T01:01:36;11.15;;;7.75;;
39680;SDS011;26327;42.550;23.120;2022-12-18T01:04:02;12.40;;;8.38;;
39680;SDS011;26327;42.550;23.120;2022-12-18T01:06:28;15.13;;;8.15;;
39680;SDS011;26327;42.550;23.120;2022-12-18T01:08:54;12.27;;;8.40;;
39680;SDS011;26327;42.550;23.120;2022-12-18T01:11:20;12.32;;;7.93;;
39680;SDS011;26327;42.550;23.120;2022-12-18T01:13:46;11.30;;;7.68;;
39680;SDS011;26327;42.550;23.120;2022-12-18T01:16:12;11.98;;;8.18;;
39680;SDS011;26327;42.550;23.120;2022-12-18T01:18:38;12.75;;;7.97;;
39680;SDS011;26327;42.550;23.120;2022-12-18T01:21:05;13.13;;;7.88;;
39680;SDS011;26327;42.550;23.120;2022-12-18T01:23:35;12.07;;;8.60;;
39680;SDS011;26327;42.550;23.120;2022-12-18T01:26:07;13.60;;;8.20;;
39680;SDS011;26327;42.550;23.120;2022-12-18T01:28:34;12.68;;;8.10;;
39680;SDS011;26327;42.550;23.120;2022-12-18T01:31:10;13.02;;;7.90;;
39680;SDS011;26327;42.550;23.120;2022-12-18T01:33:35;13.45;;;8.63;;
39680;SDS011;26327;42.550;23.120;2022-12-18T01:36:01;12.30;;;8.23;;
39680;SDS011;26327;42.550;23.120;2022-12-18T01:38:27;13.02;;;9.27;;
39680;SDS011;26327;42.550;23.120;2022-12-18T01:41:00;12.82;;;8.85;;
39680;SDS011;26327;42.550;23.120;2022-12-18T01:43:41;14.85;;;10.13;;
39680;SDS011;26327;42.550;23.120;2022-12-18T01:46:08;13.25;;;8.77;;
39680;SDS011;26327;42.550;23.120;2022-12-18T01:48:34;12.25;;;8.88;;
39680;SDS011;26327;42.550;23.120;2022-12-18T01:50:59;16.60;;;10.38;;
39680;SDS011;26327;42.550;23.120;2022-12-18T01:53:26;15.02;;;9.57;;
39680;SDS011;26327;42.550;23.120;2022-12-18T01:55:52;14.60;;;9.32;;
39680;SDS011;26327;42.550;23.120;2022-12-18T01:58:21;20.60;;;11.68;;
39680;SDS011;26327;42.550;23.120;2022-12-18T02:00:54;16.40;;;11.25;;
39680;SDS011;26327;42.550;23.120;2022-12-18T02:03:20;12.43;;;8.68;;
39680;SDS011;26327;42.550;23.120;2022-12-18T02:08:33;17.17;;;11.15;;
39680;SDS011;26327;42.550;23.120;2022-12-18T02:18:59;18.70;;;10.45;;
39680;SDS011;26327;42.550;23.120;2022-12-18T02:26:38;14.80;;;9.13;;
39680;SDS011;26327;42.550;23.120;2022-12-18T02:29:12;14.27;;;8.02;;
39680;SDS011;26327;42.550;23.120;2022-12-18T02:31:43;14.65;;;8.40;;
39680;SDS011;26327;42.550;23.120;2022-12-18T02:34:12;14.18;;;8.60;;
39680;SDS011;26327;42.550;23.120;2022-12-18T02:36:39;11.80;;;8.38;;
39680;SDS011;26327;42.550;23.120;2022-12-18T02:39:07;11.98;;;7.85;;
39680;SDS011;26327;42.550;23.120;2022-12-18T02:41:36;14.18;;;9.82;;
39680;SDS011;26327;42.550;23.120;2022-12-18T02:44:06;11.13;;;7.60;;
39680;SDS011;26327;42.550;23.120;2022-12-18T02:46:37;12.05;;;7.70;;
39680;SDS011;26327;42.550;23.120;2022-12-18T02:57:28;14.25;;;8.48;;
39680;SDS011;26327;42.550;23.120;2022-12-18T03:00:13;16.05;;;8.40;;
39680;SDS011;26327;42.550;23.120;2022-12-18T03:05:37;11.40;;;6.85;;
39680;SDS011;26327;42.550;23.120;2022-12-18T03:08:08;13.32;;;7.10;;
39680;SDS011;26327;42.550;23.120;2022-12-18T03:10:41;17.13;;;10.02;;
39680;SDS011;26327;42.550;23.120;2022-12-18T03:13:54;11.45;;;7.28;;
39680;SDS011;26327;42.550;23.120;2022-12-18T03:16:06;11.35;;;7.90;;
39680;SDS011;26327;42.550;23.120;2022-12-18T03:18:36;10.68;;;7.38;;
39680;SDS011;26327;42.550;23.120;2022-12-18T03:21:07;9.15;;;7.03;;
39680;SDS011;26327;42.550;23.120;2022-12-18T03:23:39;10.15;;;6.85;;
39680;SDS011;26327;42.550;23.120;2022-12-18T03:26:07;10.23;;;6.43;;
39680;SDS011;26327;42.550;23.120;2022-12-18T03:28:37;11.77;;;7.00;;
39680;SDS011;26327;42.550;23.120;2022-12-18T03:31:07;11.68;;;6.65;;
39680;SDS011;26327;42.550;23.120;2022-12-18T03:33:46;11.77;;;7.32;;
39680;SDS011;26327;42.550;23.120;2022-12-18T03:36:17;13.13;;;8.00;;
39680;SDS011;26327;42.550;23.120;2022-12-18T03:38:43;11.93;;;6.78;;
39680;SDS011;26327;42.550;23.120;2022-12-18T03:43:58;10.13;;;6.90;;
39680;SDS011;26327;42.550;23.120;2022-12-18T03:46:28;15.57;;;8.73;;
39680;SDS011;26327;42.550;23.120;2022-12-18T03:48:59;14.85;;;9.10;;
39680;SDS011;26327;42.550;23.120;2022-12-18T03:51:37;24.58;;;17.58;;
39680;SDS011;26327;42.550;23.120;2022-12-18T03:54:04;42.00;;;32.90;;
39680;SDS011;26327;42.550;23.120;2022-12-18T03:56:36;29.53;;;23.03;;
39680;SDS011;26327;42.550;23.120;2022-12-18T03:59:05;17.92;;;13.27;;
39680;SDS011;26327;42.550;23.120;2022-12-18T04:01:34;22.75;;;13.43;;
39680;SDS011;26327;42.550;23.120;2022-12-18T04:04:03;13.93;;;9.30;;
39680;SDS011;26327;42.550;23.120;2022-12-18T04:06:30;19.73;;;12.48;;
39680;SDS011;26327;42.550;23.120;2022-12-18T04:08:57;17.25;;;9.32;;
39680;SDS011;26327;42.550;23.120;2022-12-18T04:11:24;19.13;;;11.02;;
39680;SDS011;26327;42.550;23.120;2022-12-18T04:13:49;15.45;;;10.05;;
39680;SDS011;26327;42.550;23.120;2022-12-18T04:16:15;20.85;;;10.68;;
39680;SDS011;26327;42.550;23.120;2022-12-18T04:18:40;17.20;;;9.90;;
39680;SDS011;26327;42.550;23.120;2022-12-18T04:21:05;22.20;;;10.63;;
39680;SDS011;26327;42.550;23.120;2022-12-18T04:23:31;16.65;;;9.13;;
39680;SDS011;26327;42.550;23.120;2022-12-18T04:25:56;22.58;;;11.63;;
39680;SDS011;26327;42.550;23.120;2022-12-18T04:28:22;13.35;;;8.07;;
39680;SDS011;26327;42.550;23.120;2022-12-18T04:30:47;15.55;;;9.32;;
39680;SDS011;26327;42.550;23.120;2022-12-18T04:33:16;12.45;;;8.23;;
39680;SDS011;26327;42.550;23.120;2022-12-18T04:35:41;12.88;;;8.27;;
39680;SDS011;26327;42.550;23.120;2022-12-18T04:38:07;14.38;;;9.02;;
39680;SDS011;26327;42.550;23.120;2022-12-18T04:40:36;16.02;;;9.73;;
39680;SDS011;26327;42.550;23.120;2022-12-18T04:43:02;11.73;;;7.60;;
39680;SDS011;26327;42.550;23.120;2022-12-18T04:45:29;14.07;;;9.35;;
39680;SDS011;26327;42.550;23.120;2022-12-18T04:47:56;17.05;;;9.23;;
39680;SDS011;26327;42.550;23.120;2022-12-18T04:50:22;20.42;;;10.88;;
39680;SDS011;26327;42.550;23.120;2022-12-18T04:52:48;19.75;;;11.38;;
39680;SDS011;26327;42.550;23.120;2022-12-18T04:55:13;16.60;;;10.88;;
39680;SDS011;26327;42.550;23.120;2022-12-18T04:57:38;13.02;;;8.90;;
39680;SDS011;26327;42.550;23.120;2022-12-18T05:00:04;16.67;;;9.73;;
39680;SDS011;26327;42.550;23.120;2022-12-18T05:02:31;18.30;;;11.25;;
39680;SDS011;26327;42.550;23.120;2022-12-18T05:04:56;15.90;;;11.07;;
39680;SDS011;26327;42.550;23.120;2022-12-18T05:07:21;14.57;;;8.93;;
39680;SDS011;26327;42.550;23.120;2022-12-18T05:09:47;15.38;;;9.55;;
39680;SDS011;26327;42.550;23.120;2022-12-18T05:12:12;16.17;;;10.20;;
39680;SDS011;26327;42.550;23.120;2022-12-18T05:14:37;23.20;;;13.48;;
39680;SDS011;26327;42.550;23.120;2022-12-18T05:17:03;19.70;;;11.38;;
39680;SDS011;26327;42.550;23.120;2022-12-18T05:19:28;20.35;;;11.73;;
39680;SDS011;26327;42.550;23.120;2022-12-18T05:21:53;28.98;;;16.40;;
39680;SDS011;26327;42.550;23.120;2022-12-18T05:24:19;22.50;;;12.63;;
39680;SDS011;26327;42.550;23.120;2022-12-18T05:26:44;26.02;;;12.65;;
39680;SDS011;26327;42.550;23.120;2022-12-18T05:29:10;25.88;;;12.88;;
39680;SDS011;26327;42.550;23.120;2022-12-18T05:31:37;25.50;;;10.35;;
39680;SDS011;26327;42.550;23.120;2022-12-18T05:34:03;31.67;;;15.13;;
39680;SDS011;26327;42.550;23.120;2022-12-18T05:36:29;65.88;;;30.08;;
39680;SDS011;26327;42.550;23.120;2022-12-18T05:38:54;35.17;;;17.27;;
39680;SDS011;26327;42.550;23.120;2022-12-18T05:41:20;25.23;;;13.88;;
39680;SDS011;26327;42.550;23.120;2022-12-18T05:43:45;23.23;;;13.40;;
39680;SDS011;26327;42.550;23.120;2022-12-18T05:46:14;17.88;;;11.65;;
39680;SDS011;26327;42.550;23.120;2022-12-18T05:48:42;15.93;;;10.32;;
39680;SDS011;26327;42.550;23.120;2022-12-18T05:51:15;24.25;;;11.85;;
39680;SDS011;26327;42.550;23.120;2022-12-18T05:53:43;21.50;;;10.98;;
39680;SDS011;26327;42.550;23.120;2022-12-18T05:56:16;25.48;;;12.02;;
39680;SDS011;26327;42.550;23.120;2022-12-18T05:58:45;20.23;;;11.48;;
39680;SDS011;26327;42.550;23.120;2022-12-18T06:01:13;31.33;;;17.98;;
39680;SDS011;26327;42.550;23.120;2022-12-18T06:03:40;63.53;;;31.88;;
39680;SDS011;26327;42.550;23.120;2022-12-18T06:06:16;47.10;;;25.80;;
39680;SDS011;26327;42.550;23.120;2022-12-18T06:08:46;35.17;;;18.33;;
39680;SDS011;26327;42.550;23.120;2022-12-18T06:11:12;33.10;;;19.38;;
39680;SDS011;26327;42.550;23.120;2022-12-18T06:13:38;35.47;;;22.08;;
39680;SDS011;26327;42.550;23.120;2022-12-18T06:16:04;36.13;;;18.77;;
39680;SDS011;26327;42.550;23.120;2022-12-18T06:18:31;35.75;;;21.27;;
39680;SDS011;26327;42.550;23.120;2022-12-18T06:20:56;43.92;;;24.73;;
39680;SDS011;26327;42.550;23.120;2022-12-18T06:23:22;52.35;;;28.00;;
39680;SDS011;26327;42.550;23.120;2022-12-18T06:25:48;37.72;;;17.13;;
39680;SDS011;26327;42.550;23.120;2022-12-18T06:28:13;33.63;;;17.38;;
39680;SDS011;26327;42.550;23.120;2022-12-18T06:30:39;42.38;;;20.10;;
39680;SDS011;26327;42.550;23.120;2022-12-18T06:33:04;52.97;;;26.63;;
39680;SDS011;26327;42.550;23.120;2022-12-18T06:35:29;110.30;;;48.72;;
39680;SDS011;26327;42.550;23.120;2022-12-18T06:37:57;152.40;;;64.40;;
39680;SDS011;26327;42.550;23.120;2022-12-18T06:40:22;77.80;;;36.30;;
39680;SDS011;26327;42.550;23.120;2022-12-18T06:42:48;59.92;;;27.95;;
39680;SDS011;26327;42.550;23.120;2022-12-18T06:45:13;63.63;;;28.65;;
39680;SDS011;26327;42.550;23.120;2022-12-18T06:47:38;43.78;;;22.40;;
39680;SDS011;26327;42.550;23.120;2022-12-18T06:50:05;45.60;;;24.08;;
39680;SDS011;26327;42.550;23.120;2022-12-18T06:52:31;39.90;;;23.75;;
39680;SDS011;26327;42.550;23.120;2022-12-18T06:54:57;32.67;;;18.75;;
39680;SDS011;26327;42.550;23.120;2022-12-18T06:57:23;30.23;;;15.75;;
39680;SDS011;26327;42.550;23.120;2022-12-18T06:59:48;34.25;;;19.05;;
39680;SDS011;26327;42.550;23.120;2022-12-18T07:02:13;35.55;;;21.92;;
39680;SDS011;26327;42.550;23.120;2022-12-18T07:04:39;36.50;;;21.00;;
39680;SDS011;26327;42.550;23.120;2022-12-18T07:07:05;27.95;;;15.40;;
39680;SDS011;26327;42.550;23.120;2022-12-18T07:09:30;54.97;;;26.75;;
39680;SDS011;26327;42.550;23.120;2022-12-18T07:11:55;34.45;;;16.98;;
39680;SDS011;26327;42.550;23.120;2022-12-18T07:14:21;34.47;;;19.00;;
39680;SDS011;26327;42.550;23.120;2022-12-18T07:16:46;22.23;;;13.20;;
39680;SDS011;26327;42.550;23.120;2022-12-18T07:19:11;29.08;;;17.45;;
39680;SDS011;26327;42.550;23.120;2022-12-18T07:21:37;37.95;;;18.65;;
39680;SDS011;26327;42.550;23.120;2022-12-18T07:24:02;42.35;;;23.15;;
39680;SDS011;26327;42.550;23.120;2022-12-18T07:26:28;32.40;;;21.13;;
39680;SDS011;26327;42.550;23.120;2022-12-18T07:28:56;38.10;;;22.35;;
39680;SDS011;26327;42.550;23.120;2022-12-18T07:31:23;45.85;;;28.15;;
39680;SDS011;26327;42.550;23.120;2022-12-18T07:33:49;35.40;;;21.15;;
39680;SDS011;26327;42.550;23.120;2022-12-18T07:36:15;29.05;;;18.73;;
39680;SDS011;26327;42.550;23.120;2022-12-18T07:38:41;24.83;;;15.63;;
39680;SDS011;26327;42.550;23.120;2022-12-18T07:41:07;23.48;;;14.73;;
39680;SDS011;26327;42.550;23.120;2022-12-18T07:43:35;25.08;;;16.23;;
39680;SDS011;26327;42.550;23.120;2022-12-18T07:46:01;24.45;;;14.43;;
39680;SDS011;26327;42.550;23.120;2022-12-18T07:48:27;26.70;;;15.00;;
39680;SDS011;26327;42.550;23.120;2022-12-18T07:50:53;38.33;;;19.50;;
39680;SDS011;26327;42.550;23.120;2022-12-18T07:53:18;40.67;;;19.70;;
39680;SDS011;26327;42.550;23.120;2022-12-18T07:55:44;31.75;;;17.45;;
39680;SDS011;26327;42.550;23.120;2022-12-18T07:58:09;33.60;;;16.75;;
39680;SDS011;26327;42.550;23.120;2022-12-18T08:00:35;37.50;;;19.50;;
39680;SDS011;26327;42.550;23.120;2022-12-18T08:03:00;43.60;;;21.20;;
39680;SDS011;26327;42.550;23.120;2022-12-18T08:05:26;34.15;;;18.73;;
39680;SDS011;26327;42.550;23.120;2022-12-18T08:07:52;30.95;;;18.48;;
39680;SDS011;26327;42.550;23.120;2022-12-18T08:10:18;31.27;;;18.65;;
39680;SDS011;26327;42.550;23.120;2022-12-18T08:12:44;28.58;;;16.55;;
39680;SDS011;26327;42.550;23.120;2022-12-18T08:15:10;33.63;;;19.48;;
39680;SDS011;26327;42.550;23.120;2022-12-18T08:17:35;28.45;;;16.30;;
39680;SDS011;26327;42.550;23.120;2022-12-18T08:20:01;45.58;;;27.75;;
39680;SDS011;26327;42.550;23.120;2022-12-18T08:22:26;23.55;;;15.05;;
39680;SDS011;26327;42.550;23.120;2022-12-18T08:24:51;34.05;;;18.10;;
39680;SDS011;26327;42.550;23.120;2022-12-18T08:27:17;85.97;;;42.10;;
39680;SDS011;26327;42.550;23.120;2022-12-18T08:29:42;44.67;;;24.05;;
39680;SDS011;26327;42.550;23.120;2022-12-18T08:32:08;39.45;;;21.17;;
39680;SDS011;26327;42.550;23.120;2022-12-18T08:34:33;35.60;;;20.13;;
39680;SDS011;26327;42.550;23.120;2022-12-18T08:36:59;33.00;;;19.98;;
39680;SDS011;26327;42.550;23.120;2022-12-18T08:39:24;70.88;;;41.50;;
39680;SDS011;26327;42.550;23.120;2022-12-18T08:41:49;138.18;;;68.65;;
39680;SDS011;26327;42.550;23.120;2022-12-18T08:44:33;61.90;;;37.70;;
39680;SDS011;26327;42.550;23.120;2022-12-18T08:47:05;47.00;;;29.17;;
39680;SDS011;26327;42.550;23.120;2022-12-18T08:49:32;40.95;;;24.25;;
39680;SDS011;26327;42.550;23.120;2022-12-18T08:51:58;37.83;;;23.02;;
39680;SDS011;26327;42.550;23.120;2022-12-18T08:54:24;55.15;;;24.58;;
39680;SDS011;26327;42.550;23.120;2022-12-18T08:56:50;51.78;;;23.90;;
39680;SDS011;26327;42.550;23.120;2022-12-18T08:59:16;42.45;;;22.92;;
39680;SDS011;26327;42.550;23.120;2022-12-18T09:01:41;57.88;;;24.38;;
39680;SDS011;26327;42.550;23.120;2022-12-18T09:04:07;64.22;;;28.13;;
39680;SDS011;26327;42.550;23.120;2022-12-18T09:06:34;62.72;;;27.75;;
39680;SDS011;26327;42.550;23.120;2022-12-18T09:08:59;49.35;;;24.27;;
39680;SDS011;26327;42.550;23.120;2022-12-18T09:11:25;50.55;;;24.40;;
39680;SDS011;26327;42.550;23.120;2022-12-18T09:13:52;86.53;;;35.15;;
39680;SDS011;26327;42.550;23.120;2022-12-18T09:16:19;50.08;;;25.00;;
39680;SDS011;26327;42.550;23.120;2022-12-18T09:18:46;47.17;;;24.30;;
39680;SDS011;26327;42.550;23.120;2022-12-18T09:21:12;30.52;;;18.58;;
39680;SDS011;26327;42.550;23.120;2022-12-18T09:23:49;56.90;;;27.65;;
39680;SDS011;26327;42.550;23.120;2022-12-18T09:26:15;41.88;;;23.10;;
39680;SDS011;26327;42.550;23.120;2022-12-18T09:28:41;49.40;;;27.73;;
39680;SDS011;26327;42.550;23.120;2022-12-18T09:31:07;34.75;;;20.27;;
39680;SDS011;26327;42.550;23.120;2022-12-18T09:33:34;41.97;;;21.92;;
39680;SDS011;26327;42.550;23.120;2022-12-18T09:36:02;35.42;;;21.05;;
39680;SDS011;26327;42.550;23.120;2022-12-18T09:38:28;38.90;;;22.00;;
39680;SDS011;26327;42.550;23.120;2022-12-18T09:40:56;45.45;;;25.02;;
39680;SDS011;26327;42.550;23.120;2022-12-18T09:43:30;48.65;;;25.20;;
39680;SDS011;26327;42.550;23.120;2022-12-18T09:46:06;49.93;;;25.40;;
39680;SDS011;26327;42.550;23.120;2022-12-18T09:48:46;41.38;;;24.08;;
39680;SDS011;26327;42.550;23.120;2022-12-18T09:51:15;46.25;;;21.50;;
39680;SDS011;26327;42.550;23.120;2022-12-18T09:54:05;42.58;;;20.60;;
39680;SDS011;26327;42.550;23.120;2022-12-18T09:56:37;37.80;;;21.73;;
39680;SDS011;26327;42.550;23.120;2022-12-18T09:59:09;34.75;;;19.90;;
39680;SDS011;26327;42.550;23.120;2022-12-18T10:01:43;36.42;;;24.13;;
39680;SDS011;26327;42.550;23.120;2022-12-18T10:04:09;24.90;;;14.63;;
39680;SDS011;26327;42.550;23.120;2022-12-18T10:11:40;33.45;;;20.95;;
39680;SDS011;26327;42.550;23.120;2022-12-18T10:14:17;35.90;;;24.77;;
39680;SDS011;26327;42.550;23.120;2022-12-18T10:28:16;31.45;;;20.13;;
39680;SDS011;26327;42.550;23.120;2022-12-18T10:30:44;33.90;;;17.70;;
39680;SDS011;26327;42.550;23.120;2022-12-18T10:33:19;26.55;;;16.33;;
39680;SDS011;26327;42.550;23.120;2022-12-18T10:35:48;22.65;;;12.88;;
39680;SDS011;26327;42.550;23.120;2022-12-18T10:41:03;23.65;;;14.32;;
39680;SDS011;26327;42.550;23.120;2022-12-18T10:44:10;22.45;;;13.27;;
39680;SDS011;26327;42.550;23.120;2022-12-18T10:46:44;21.85;;;13.95;;
39680;SDS011;26327;42.550;23.120;2022-12-18T10:49:23;22.15;;;13.05;;
39680;SDS011;26327;42.550;23.120;2022-12-18T10:52:03;26.48;;;13.77;;
39680;SDS011;26327;42.550;23.120;2022-12-18T10:54:32;30.85;;;17.77;;
39680;SDS011;26327;42.550;23.120;2022-12-18T10:57:16;32.38;;;17.33;;
39680;SDS011;26327;42.550;23.120;2022-12-18T10:59:55;27.42;;;14.73;;
39680;SDS011;26327;42.550;23.120;2022-12-18T11:05:01;76.43;;;33.85;;
39680;SDS011;26327;42.550;23.120;2022-12-18T11:07:46;68.03;;;31.02;;
39680;SDS011;26327;42.550;23.120;2022-12-18T11:10:17;58.95;;;27.38;;
39680;SDS011;26327;42.550;23.120;2022-12-18T11:12:44;42.90;;;22.00;;
39680;SDS011;26327;42.550;23.120;2022-12-18T11:15:20;42.80;;;24.38;;
39680;SDS011;26327;42.550;23.120;2022-12-18T11:17:51;46.13;;;23.65;;
39680;SDS011;26327;42.550;23.120;2022-12-18T11:23:05;49.97;;;25.27;;
39680;SDS011;26327;42.550;23.120;2022-12-18T11:25:37;51.00;;;25.00;;
39680;SDS011;26327;42.550;23.120;2022-12-18T11:28:05;31.00;;;16.55;;
39680;SDS011;26327;42.550;23.120;2022-12-18T11:30:49;38.90;;;19.73;;
39680;SDS011;26327;42.550;23.120;2022-12-18T11:33:37;38.95;;;21.08;;
39680;SDS011;26327;42.550;23.120;2022-12-18T11:36:06;39.25;;;21.08;;
39680;SDS011;26327;42.550;23.120;2022-12-18T11:38:38;53.03;;;26.70;;
39680;SDS011;26327;42.550;23.120;2022-12-18T11:44:13;39.72;;;20.42;;
39680;SDS011;26327;42.550;23.120;2022-12-18T11:47:19;64.85;;;35.10;;
39680;SDS011;26327;42.550;23.120;2022-12-18T11:49:45;58.45;;;31.55;;
39680;SDS011;26327;42.550;23.120;2022-12-18T11:52:15;45.03;;;23.27;;
39680;SDS011;26327;42.550;23.120;2022-12-18T11:54:44;46.08;;;26.00;;
39680;SDS011;26327;42.550;23.120;2022-12-18T11:57:16;46.60;;;23.70;;
39680;SDS011;26327;42.550;23.120;2022-12-18T12:05:47;41.92;;;22.50;;
39680;SDS011;26327;42.550;23.120;2022-12-18T12:11:14;43.33;;;24.50;;
39680;SDS011;26327;42.550;23.120;2022-12-18T12:14:17;52.08;;;27.63;;
39680;SDS011;26327;42.550;23.120;2022-12-18T12:20:06;29.77;;;17.08;;
39680;SDS011;26327;42.550;23.120;2022-12-18T12:31:10;75.35;;;33.78;;
39680;SDS011;26327;42.550;23.120;2022-12-18T12:33:57;61.43;;;30.93;;
39680;SDS011;26327;42.550;23.120;2022-12-18T12:39:06;30.60;;;16.00;;
39680;SDS011;26327;42.550;23.120;2022-12-18T12:41:34;74.47;;;34.05;;
39680;SDS011;26327;42.550;23.120;2022-12-18T12:45:03;57.63;;;28.05;;
39680;SDS011;26327;42.550;23.120;2022-12-18T12:47:14;42.55;;;21.92;;
39680;SDS011;26327;42.550;23.120;2022-12-18T12:49:45;28.63;;;14.77;;
39680;SDS011;26327;42.550;23.120;2022-12-18T12:52:28;39.92;;;21.75;;
39680;SDS011;26327;42.550;23.120;2022-12-18T12:54:58;30.60;;;14.02;;
39680;SDS011;26327;42.550;23.120;2022-12-18T12:57:33;29.90;;;15.55;;
39680;SDS011;26327;42.550;23.120;2022-12-18T13:05:25;38.85;;;21.40;;
39680;SDS011;26327;42.550;23.120;2022-12-18T13:07:59;27.38;;;14.70;;
39680;SDS011;26327;42.550;23.120;2022-12-18T13:10:33;44.17;;;22.92;;
39680;SDS011;26327;42.550;23.120;2022-12-18T13:13:08;57.72;;;28.92;;
39680;SDS011;26327;42.550;23.120;2022-12-18T13:15:43;33.47;;;18.40;;
39680;SDS011;26327;42.550;23.120;2022-12-18T13:18:27;53.67;;;28.73;;
39680;SDS011;26327;42.550;23.120;2022-12-18T13:23:23;32.63;;;18.88;;
39680;SDS011;26327;42.550;23.120;2022-12-18T13:25:59;42.10;;;23.17;;
39680;SDS011;26327;42.550;23.120;2022-12-18T13:34:19;47.05;;;22.58;;
39680;SDS011;26327;42.550;23.120;2022-12-18T13:36:46;56.17;;;28.42;;
39680;SDS011;26327;42.550;23.120;2022-12-18T13:41:46;50.83;;;26.35;;
39680;SDS011;26327;42.550;23.120;2022-12-18T13:44:32;37.78;;;22.23;;
39680;SDS011;26327;42.550;23.120;2022-12-18T13:46:58;42.60;;;23.23;;
39680;SDS011;26327;42.550;23.120;2022-12-18T13:51:51;35.80;;;18.40;;
39680;SDS011;26327;42.550;23.120;2022-12-18T13:54:20;27.65;;;15.43;;
39680;SDS011;26327;42.550;23.120;2022-12-18T13:56:57;34.67;;;19.40;;
39680;SDS011;26327;42.550;23.120;2022-12-18T13:59:24;37.17;;;19.00;;
39680;SDS011;26327;42.550;23.120;2022-12-18T14:06:45;29.00;;;16.13;;
39680;SDS011;26327;42.550;23.120;2022-12-18T14:09:14;29.25;;;17.05;;
39680;SDS011;26327;42.550;23.120;2022-12-18T14:11:45;25.00;;;12.90;;
39680;SDS011;26327;42.550;23.120;2022-12-18T14:14:17;27.98;;;15.98;;
39680;SDS011;26327;42.550;23.120;2022-12-18T14:19:14;36.05;;;19.55;;
39680;SDS011;26327;42.550;23.120;2022-12-18T14:21:45;34.97;;;19.92;;
39680;SDS011;26327;42.550;23.120;2022-12-18T14:26:39;37.85;;;20.63;;
39680;SDS011;26327;42.550;23.120;2022-12-18T14:32:03;36.08;;;20.15;;
39680;SDS011;26327;42.550;23.120;2022-12-18T14:34:31;45.28;;;26.75;;
39680;SDS011;26327;42.550;23.120;2022-12-18T14:36:57;59.42;;;32.42;;
39680;SDS011;26327;42.550;23.120;2022-12-18T14:39:22;63.30;;;33.03;;
39680;SDS011;26327;42.550;23.120;2022-12-18T14:41:50;31.23;;;17.27;;
39680;SDS011;26327;42.550;23.120;2022-12-18T14:44:16;29.15;;;13.80;;
39680;SDS011;26327;42.550;23.120;2022-12-18T14:46:45;26.17;;;15.57;;
39680;SDS011;26327;42.550;23.120;2022-12-18T14:49:26;31.17;;;18.25;;
39680;SDS011;26327;42.550;23.120;2022-12-18T14:51:55;27.10;;;15.98;;
39680;SDS011;26327;42.550;23.120;2022-12-18T14:54:23;23.17;;;13.10;;
39680;SDS011;26327;42.550;23.120;2022-12-18T14:57:03;47.00;;;23.98;;
39680;SDS011;26327;42.550;23.120;2022-12-18T14:59:29;28.77;;;15.55;;
39680;SDS011;26327;42.550;23.120;2022-12-18T15:04:45;32.40;;;15.95;;
39680;SDS011;26327;42.550;23.120;2022-12-18T15:07:22;38.80;;;20.85;;
39680;SDS011;26327;42.550;23.120;2022-12-18T15:12:34;30.02;;;16.88;;
39680;SDS011;26327;42.550;23.120;2022-12-18T15:15:02;40.33;;;22.85;;
39680;SDS011;26327;42.550;23.120;2022-12-18T15:17:29;35.97;;;19.95;;
39680;SDS011;26327;42.550;23.120;2022-12-18T15:20:01;35.92;;;19.50;;
39680;SDS011;26327;42.550;23.120;2022-12-18T15:22:34;32.05;;;18.95;;
39680;SDS011;26327;42.550;23.120;2022-12-18T15:25:01;37.35;;;20.70;;
39680;SDS011;26327;42.550;23.120;2022-12-18T15:27:32;32.53;;;18.77;;
39680;SDS011;26327;42.550;23.120;2022-12-18T15:30:16;31.88;;;19.15;;
39680;SDS011;26327;42.550;23.120;2022-12-18T15:32:44;32.42;;;18.33;;
39680;SDS011;26327;42.550;23.120;2022-12-18T15:37:36;33.13;;;18.15;;
39680;SDS011;26327;42.550;23.120;2022-12-18T15:40:05;40.67;;;22.48;;
39680;SDS011;26327;42.550;23.120;2022-12-18T15:42:31;38.90;;;18.38;;
39680;SDS011;26327;42.550;23.120;2022-12-18T15:45:14;33.38;;;20.20;;
39680;SDS011;26327;42.550;23.120;2022-12-18T15:47:41;35.40;;;19.02;;
39680;SDS011;26327;42.550;23.120;2022-12-18T15:50:07;40.45;;;22.15;;
39680;SDS011;26327;42.550;23.120;2022-12-18T15:52:36;39.28;;;19.50;;
39680;SDS011;26327;42.550;23.120;2022-12-18T15:55:18;42.72;;;21.35;;
39680;SDS011;26327;42.550;23.120;2022-12-18T15:58:07;41.20;;;23.27;;
39680;SDS011;26327;42.550;23.120;2022-12-18T16:00:34;32.75;;;21.05;;
39680;SDS011;26327;42.550;23.120;2022-12-18T16:03:02;31.90;;;18.75;;
39680;SDS011;26327;42.550;23.120;2022-12-18T16:05:28;37.80;;;22.73;;
39680;SDS011;26327;42.550;23.120;2022-12-18T16:07:54;31.48;;;17.17;;
39680;SDS011;26327;42.550;23.120;2022-12-18T16:10:20;31.65;;;16.95;;
39680;SDS011;26327;42.550;23.120;2022-12-18T16:12:45;33.03;;;18.25;;
39680;SDS011;26327;42.550;23.120;2022-12-18T16:15:12;25.50;;;13.82;;
39680;SDS011;26327;42.550;23.120;2022-12-18T16:17:39;37.25;;;20.75;;
39680;SDS011;26327;42.550;23.120;2022-12-18T16:20:06;30.73;;;16.85;;
39680;SDS011;26327;42.550;23.120;2022-12-18T16:22:37;31.17;;;16.58;;
39680;SDS011;26327;42.550;23.120;2022-12-18T16:25:03;37.85;;;20.52;;